Terminal Aerodrome Forecast
Issued by NWS

Current Version | Previous Version | Text Only | Print | Product List | Glossary On
Versions: 1 2 3 4 5 6 7 8 9 10 11 12 13 14 15
431
FTUS45 KTFX 231120
TAFGTF
TAF
KGTF 231120Z 2312/2412 22011KT P6SM FEW200
     FM241000 22016G24KT P6SM FEW200 WS015/24030KT=

USA.gov is the U.S. government's official web portal to all federal, state and local government web resources and services.